Castlereagh, United Kingdom
Current Conditions -  °F | °C
As of 9:20 PM on Tuesday 25 Nov 2014 (Local Time) from EGAC Reporting Station
Broken Clouds Broken Clouds  
Wind Chill: 43°   Ceiling: 4000
Heat Index: 46°   Visibility: 6mi
Dew Point: 45°   Wind: 7mph
Humidity: 93%   Direction: 170°S
Pressure: 30.09"   Gusts: NA
Location:  54.57°N, 5.88°W
Report Text: EGAC 252120Z 17006KT 9999 FEW018 SCT030 BKN040 08/07 Q1019
Loading
Personal Weather Stations






























Interactive Weather Map New forecast layout! Learn more

10-Day Weather Forecast

Advertisements
Track Severe Weather on mobile